createdAt,value
2019-02-17T00:00:42.105Z,10.10
2019-02-17T00:03:11.472Z,8.80
2019-02-17T00:05:40.895Z,9.40
2019-02-17T00:08:10.245Z,9.03
2019-02-17T00:10:39.759Z,9.07
2019-02-17T00:13:10.447Z,9.50
2019-02-17T00:15:39.770Z,9.20
2019-02-17T00:18:09.273Z,8.80
2019-02-17T00:20:38.806Z,9.47
2019-02-17T00:23:08.321Z,10.07
2019-02-17T00:25:37.758Z,9.80
2019-02-17T00:28:07.218Z,10.00
2019-02-17T00:30:36.667Z,8.63
2019-02-17T00:33:06.191Z,8.87
2019-02-17T00:35:35.740Z,10.17
2019-02-17T00:38:05.104Z,9.60
2019-02-17T00:40:34.616Z,9.63
2019-02-17T00:43:04.090Z,10.17
2019-02-17T00:45:33.393Z,9.23
2019-02-17T00:48:02.741Z,9.80
2019-02-17T00:50:32.251Z,9.67
2019-02-17T00:53:02.780Z,9.40
2019-02-17T00:55:32.082Z,10.40
2019-02-17T00:58:01.641Z,9.00
2019-02-17T01:00:31.102Z,8.47
2019-02-17T01:03:00.498Z,9.07
2019-02-17T01:05:29.898Z,9.27
2019-02-17T01:07:59.414Z,10.10
2019-02-17T01:10:28.910Z,9.77
2019-02-17T01:12:58.339Z,9.43
2019-02-17T01:15:27.819Z,10.00
2019-02-17T01:17:57.194Z,10.80
2019-02-17T01:20:26.523Z,9.13
2019-02-17T01:22:56.074Z,8.77
2019-02-17T01:25:25.559Z,8.43
2019-02-17T01:27:55.048Z,9.70
2019-02-17T01:30:24.559Z,9.60
2019-02-17T01:32:54.957Z,9.13
2019-02-17T01:35:24.359Z,9.53
2019-02-17T01:37:53.849Z,9.13
2019-02-17T01:40:23.413Z,8.50
2019-02-17T01:42:52.833Z,9.20
2019-02-17T01:45:22.345Z,9.20
2019-02-17T01:47:51.650Z,9.43
2019-02-17T01:50:21.875Z,9.40
2019-02-17T01:52:51.334Z,9.57
2019-02-17T01:55:20.639Z,9.30
2019-02-17T01:57:50.106Z,8.53
2019-02-17T02:00:19.618Z,9.00
2019-02-17T02:02:49.184Z,9.40
2019-02-17T02:05:18.574Z,8.80
2019-02-17T02:07:47.923Z,8.73
2019-02-17T02:10:17.421Z,9.23
2019-02-17T02:12:46.754Z,8.27
2019-02-17T02:15:18.319Z,8.60
2019-02-17T02:17:47.778Z,8.63
2019-02-17T02:20:17.284Z,10.57
2019-02-17T02:22:47.792Z,9.37
2019-02-17T02:25:17.102Z,8.63
2019-02-17T02:27:46.389Z,8.60
2019-02-17T02:30:15.719Z,9.00
2019-02-17T02:32:45.259Z,9.20
2019-02-17T02:35:15.941Z,8.60
2019-02-17T02:37:45.282Z,8.70
2019-02-17T02:40:14.744Z,7.97
2019-02-17T02:42:44.181Z,8.90
2019-02-17T02:45:13.462Z,9.23
2019-02-17T02:47:42.900Z,9.03
2019-02-17T02:50:12.357Z,8.83
2019-02-17T02:52:41.672Z,8.20
2019-02-17T02:55:10.918Z,8.97
2019-02-17T02:57:40.289Z,8.60
2019-02-17T03:00:10.918Z,9.23
2019-02-17T03:02:40.352Z,8.83
2019-02-17T03:05:09.849Z,8.60
2019-02-17T03:07:39.359Z,8.80
2019-02-17T03:10:09.033Z,8.87
2019-02-17T03:12:38.510Z,9.20
2019-02-17T03:15:07.878Z,8.30
2019-02-17T03:17:37.356Z,8.83
2019-02-17T03:20:07.004Z,9.07
2019-02-17T03:22:36.450Z,8.90
2019-02-17T03:25:06.578Z,8.70
2019-02-17T03:27:35.978Z,8.67
2019-02-17T03:30:06.490Z,8.40
2019-02-17T03:32:35.797Z,8.80
2019-02-17T03:35:05.129Z,9.10
2019-02-17T03:37:34.602Z,9.50
2019-02-17T03:40:04.920Z,8.57
2019-02-17T03:42:34.191Z,9.43
2019-02-17T03:45:03.518Z,8.97
2019-02-17T03:47:32.874Z,9.57
2019-02-17T03:50:02.302Z,9.60
2019-02-17T03:52:31.609Z,8.10
2019-02-17T03:55:00.939Z,8.47
2019-02-17T03:57:30.450Z,9.50
2019-02-17T03:59:59.872Z,8.80
2019-02-17T04:02:29.152Z,9.43
2019-02-17T04:04:58.518Z,8.23
2019-02-17T04:07:27.805Z,9.00
2019-02-17T04:09:57.260Z,8.73
2019-02-17T04:12:26.751Z,9.43
2019-02-17T04:14:57.397Z,9.37
2019-02-17T04:17:26.923Z,9.03
2019-02-17T04:19:56.413Z,8.93
2019-02-17T04:22:25.717Z,8.77
2019-02-17T04:24:55.251Z,8.93
2019-02-17T04:27:24.784Z,9.30
2019-02-17T04:29:54.312Z,9.20
2019-02-17T04:32:23.711Z,9.00
2019-02-17T04:34:53.101Z,9.77
2019-02-17T04:37:22.540Z,9.43
2019-02-17T04:39:52.078Z,8.90
2019-02-17T04:42:21.412Z,9.83
2019-02-17T04:44:50.920Z,8.93
2019-02-17T04:47:20.319Z,8.07
2019-02-17T04:49:50.147Z,8.80
2019-02-17T04:52:19.554Z,9.50
2019-02-17T04:54:48.887Z,9.40
2019-02-17T04:57:19.235Z,9.43
2019-02-17T04:59:48.664Z,9.53
2019-02-17T05:02:17.983Z,9.57
2019-02-17T05:04:47.436Z,9.00
2019-02-17T05:07:16.811Z,10.10
2019-02-17T05:09:46.108Z,9.20
2019-02-17T05:12:15.648Z,9.13
2019-02-17T05:14:45.136Z,9.60
2019-02-17T05:17:14.646Z,9.30
2019-02-17T05:19:44.084Z,9.10
2019-02-17T05:22:13.489Z,9.87
2019-02-17T05:24:42.965Z,9.17
2019-02-17T05:27:12.455Z,10.30
2019-02-17T05:29:41.953Z,9.30
2019-02-17T05:32:11.400Z,9.93
2019-02-17T05:34:40.795Z,9.43
2019-02-17T05:37:10.281Z,9.10
2019-02-17T05:39:39.758Z,9.43
2019-02-17T05:42:09.294Z,10.53
2019-02-17T05:44:38.772Z,8.87
2019-02-17T05:47:08.253Z,9.27
2019-02-17T05:49:37.656Z,9.03
2019-02-17T05:52:07.054Z,9.83
2019-02-17T05:54:36.634Z,9.77
2019-02-17T05:57:06.101Z,9.07
2019-02-17T05:59:35.620Z,9.60
2019-02-17T06:02:05.181Z,8.43
2019-02-17T06:04:34.998Z,9.60
2019-02-17T06:07:04.339Z,9.60
2019-02-17T06:09:33.841Z,9.50
2019-02-17T06:12:03.372Z,10.33
2019-02-17T06:14:32.786Z,9.80
2019-02-17T06:17:02.189Z,10.40
2019-02-17T06:19:32.812Z,9.03
2019-02-17T06:22:02.898Z,9.33
2019-02-17T06:24:32.195Z,10.03
2019-02-17T06:27:01.584Z,10.20
2019-02-17T06:29:31.094Z,9.70
2019-02-17T06:32:00.428Z,9.20
2019-02-17T06:34:29.871Z,9.00
2019-02-17T06:36:59.204Z,10.27
2019-02-17T06:39:28.682Z,10.03
2019-02-17T06:41:57.989Z,11.03
2019-02-17T06:44:27.277Z,10.07
2019-02-17T06:46:59.949Z,9.63
2019-02-17T06:49:29.362Z,9.33
2019-02-17T06:51:59.619Z,10.17
2019-02-17T06:54:28.888Z,9.90
2019-02-17T06:57:05.802Z,9.53
2019-02-17T06:59:35.154Z,9.40
2019-02-17T07:02:04.660Z,9.80
2019-02-17T07:04:53.267Z,10.37
2019-02-17T07:07:22.721Z,10.67
2019-02-17T07:09:52.113Z,9.60
2019-02-17T07:12:21.568Z,10.43
2019-02-17T07:14:51.044Z,10.03
2019-02-17T07:17:20.407Z,10.53
2019-02-17T07:19:49.883Z,10.07
2019-02-17T07:22:19.372Z,8.60
2019-02-17T07:24:51.976Z,8.80
2019-02-17T07:27:22.875Z,9.20
2019-02-17T07:29:52.477Z,9.00
2019-02-17T07:32:21.904Z,8.00
2019-02-17T07:34:51.832Z,8.77
2019-02-17T07:37:21.263Z,7.73
2019-02-17T07:39:50.610Z,8.07
2019-02-17T07:42:20.086Z,7.77
2019-02-17T07:44:49.391Z,8.03
2019-02-17T07:47:18.662Z,7.87
2019-02-17T07:49:52.041Z,8.47
2019-02-17T07:52:21.405Z,7.80
2019-02-17T07:54:50.704Z,7.63
2019-02-17T07:57:20.073Z,6.80
2019-02-17T07:59:49.374Z,7.43
2019-02-17T08:02:18.861Z,7.37
2019-02-17T08:04:48.311Z,6.40
2019-02-17T08:07:17.635Z,6.57
2019-02-17T08:09:47.216Z,7.33
2019-02-17T08:12:16.609Z,7.50
2019-02-17T08:14:45.973Z,7.30
2019-02-17T08:17:15.407Z,6.43
2019-02-17T08:19:44.741Z,6.53
2019-02-17T08:22:14.961Z,6.57
2019-02-17T08:24:44.383Z,6.70
2019-02-17T08:27:13.894Z,6.00
2019-02-17T08:29:43.349Z,6.53
2019-02-17T08:32:12.746Z,7.03
2019-02-17T08:34:42.226Z,6.03
2019-02-17T08:37:11.657Z,6.10
2019-02-17T08:40:00.320Z,6.80
2019-02-17T08:42:29.768Z,6.30
2019-02-17T08:44:59.305Z,6.47
2019-02-17T08:47:28.791Z,6.07
2019-02-17T08:49:59.310Z,6.27
2019-02-17T08:52:28.761Z,5.90
2019-02-17T08:54:58.020Z,6.33
2019-02-17T08:57:27.409Z,6.50
2019-02-17T08:59:56.887Z,6.23
2019-02-17T09:02:26.203Z,5.90
2019-02-17T09:04:55.664Z,5.80
2019-02-17T09:07:25.032Z,5.60
2019-02-17T09:09:54.563Z,5.60
2019-02-17T09:12:24.523Z,5.73
2019-02-17T09:14:53.948Z,6.00
2019-02-17T09:17:23.426Z,5.80
2019-02-17T09:19:52.724Z,6.47
2019-02-17T09:22:22.654Z,5.23
2019-02-17T09:24:51.914Z,5.40
2019-02-17T09:27:22.088Z,6.00
2019-02-17T09:29:51.557Z,5.10
2019-02-17T09:32:20.974Z,4.97
2019-02-17T09:34:50.942Z,5.40
2019-02-17T09:37:20.327Z,5.03
2019-02-17T09:39:49.787Z,5.17
2019-02-17T09:42:19.100Z,5.00
2019-02-17T09:44:48.357Z,5.20
2019-02-17T09:47:17.757Z,5.50
2019-02-17T09:49:47.198Z,5.43
2019-02-17T09:52:16.526Z,5.00
2019-02-17T09:54:46.043Z,5.43
2019-02-17T09:57:15.556Z,4.50
2019-02-17T09:59:44.997Z,5.27
2019-02-17T10:02:14.284Z,4.97
2019-02-17T10:04:43.653Z,4.67
2019-02-17T10:07:13.098Z,4.60
2019-02-17T10:09:42.393Z,5.60
2019-02-17T10:12:11.751Z,5.03
2019-02-17T10:14:41.263Z,4.77
2019-02-17T10:17:10.771Z,5.00
2019-02-17T10:19:40.265Z,5.00
2019-02-17T10:22:09.773Z,4.20
2019-02-17T10:24:39.205Z,5.00
2019-02-17T10:27:08.499Z,4.30
2019-02-17T10:29:37.901Z,3.97
2019-02-17T10:32:07.423Z,4.10
2019-02-17T10:34:36.939Z,4.70
2019-02-17T10:37:06.385Z,4.70
2019-02-17T10:39:35.878Z,4.40
2019-02-17T10:42:05.176Z,4.07
2019-02-17T10:44:34.425Z,3.90
2019-02-17T10:47:03.766Z,4.90
2019-02-17T10:49:33.052Z,3.80
2019-02-17T10:52:03.097Z,4.03
2019-02-17T10:54:32.563Z,3.87
2019-02-17T10:57:02.033Z,4.40
2019-02-17T10:59:31.517Z,4.20
2019-02-17T11:02:01.004Z,4.17
2019-02-17T11:04:31.164Z,3.90
2019-02-17T11:07:00.655Z,3.70
2019-02-17T11:09:30.244Z,4.20
2019-02-17T11:11:59.682Z,4.20
2019-02-17T11:14:29.264Z,4.23
2019-02-17T11:16:58.672Z,4.20
2019-02-17T11:19:27.959Z,4.17
2019-02-17T11:21:57.417Z,3.90
2019-02-17T11:24:27.077Z,3.90
2019-02-17T11:26:56.507Z,3.90
2019-02-17T11:29:26.007Z,4.00
2019-02-17T11:31:55.502Z,3.57
2019-02-17T11:34:25.007Z,4.03
2019-02-17T11:36:54.485Z,3.47
2019-02-17T11:39:24.796Z,3.80
2019-02-17T11:41:54.089Z,3.60
2019-02-17T11:44:23.411Z,3.97
2019-02-17T11:46:52.754Z,4.10
2019-02-17T11:49:22.256Z,3.97
2019-02-17T11:51:51.777Z,3.77
2019-02-17T11:54:21.694Z,3.93
2019-02-17T11:56:51.192Z,3.80
2019-02-17T11:59:20.672Z,3.80
2019-02-17T12:01:50.400Z,3.87
2019-02-17T12:04:19.864Z,4.10
2019-02-17T12:06:49.169Z,4.03
2019-02-17T12:09:18.521Z,3.67
2019-02-17T12:11:48.623Z,3.77
2019-02-17T12:14:18.095Z,3.80
2019-02-17T12:16:47.422Z,4.23
2019-02-17T12:19:16.884Z,3.97
2019-02-17T12:21:57.162Z,3.67
2019-02-17T12:24:40.706Z,3.50
2019-02-17T12:27:20.815Z,3.40
2019-02-17T12:30:03.772Z,3.40
2019-02-17T12:32:33.121Z,3.90
2019-02-17T12:35:02.527Z,3.80
2019-02-17T12:37:31.982Z,3.10
2019-02-17T12:40:01.303Z,3.87
2019-02-17T12:42:30.678Z,3.50
2019-02-17T12:45:00.296Z,3.30
2019-02-17T12:47:29.832Z,3.53
2019-02-17T12:49:59.327Z,3.43
2019-02-17T12:52:28.841Z,3.70
2019-02-17T12:54:58.367Z,3.63
2019-02-17T12:57:27.858Z,4.23
2019-02-17T12:59:57.325Z,3.23
2019-02-17T13:02:26.821Z,3.23
2019-02-17T13:04:56.128Z,3.57
2019-02-17T13:07:25.433Z,3.07
2019-02-17T13:09:54.954Z,3.57
2019-02-17T13:12:24.596Z,3.30
2019-02-17T13:14:53.946Z,3.70
2019-02-17T13:17:23.227Z,3.53
2019-02-17T13:19:52.513Z,3.60
2019-02-17T13:22:21.839Z,3.83
2019-02-17T13:24:51.147Z,3.70
2019-02-17T13:27:20.512Z,3.17
2019-02-17T13:29:49.983Z,3.00
2019-02-17T13:32:19.452Z,3.47
2019-02-17T13:34:48.808Z,3.10
2019-02-17T13:37:18.265Z,3.50
2019-02-17T13:39:47.654Z,3.30
2019-02-17T13:42:17.056Z,3.47
2019-02-17T13:44:46.423Z,3.50
2019-02-17T13:47:16.612Z,3.20
2019-02-17T13:49:46.270Z,2.90
2019-02-17T13:52:15.717Z,3.10
2019-02-17T13:54:45.283Z,3.20
2019-02-17T13:57:14.676Z,3.10
2019-02-17T13:59:45.065Z,3.10
2019-02-17T14:02:14.582Z,3.30
2019-02-17T14:04:44.161Z,2.83
2019-02-17T14:07:13.661Z,3.03
2019-02-17T14:09:43.087Z,2.67
2019-02-17T14:12:16.395Z,3.13
2019-02-17T14:14:45.824Z,2.77
2019-02-17T14:17:15.270Z,2.80
2019-02-17T14:19:44.728Z,3.00
2019-02-17T14:22:14.109Z,3.00
2019-02-17T14:24:43.577Z,2.80
2019-02-17T14:27:12.798Z,2.80
2019-02-17T14:29:42.646Z,2.83
2019-02-17T14:32:12.131Z,2.53
2019-02-17T14:34:41.686Z,2.67
2019-02-17T14:37:13.269Z,3.07
2019-02-17T14:39:42.267Z,2.40
2019-02-17T14:42:11.751Z,2.50
2019-02-17T14:44:41.030Z,2.40
2019-02-17T14:47:10.374Z,2.63
2019-02-17T14:49:39.891Z,2.47
2019-02-17T14:52:09.926Z,2.87
2019-02-17T14:54:39.193Z,2.57
2019-02-17T14:57:08.671Z,2.40
2019-02-17T14:59:38.069Z,2.67
2019-02-17T15:02:07.750Z,2.50
2019-02-17T15:04:37.164Z,2.40
2019-02-17T15:07:06.664Z,2.90
2019-02-17T15:09:36.117Z,2.57
2019-02-17T15:12:05.420Z,2.70
2019-02-17T15:14:34.760Z,2.70
2019-02-17T15:17:04.362Z,4.67
2019-02-17T15:19:33.813Z,3.30
2019-02-17T15:22:03.377Z,3.73
2019-02-17T15:24:32.782Z,7.47
2019-02-17T15:27:02.354Z,7.37
2019-02-17T15:29:31.860Z,11.37
2019-02-17T15:32:01.310Z,8.87
2019-02-17T15:34:30.770Z,12.03
2019-02-17T15:37:00.178Z,10.50
2019-02-17T15:39:29.670Z,9.40
2019-02-17T15:41:59.185Z,10.23
2019-02-17T15:44:28.430Z,8.97
2019-02-17T15:46:57.907Z,10.00
2019-02-17T15:49:27.390Z,8.90
2019-02-17T15:51:56.948Z,8.73
2019-02-17T15:54:26.430Z,8.10
2019-02-17T15:56:55.982Z,8.57
2019-02-17T15:59:25.523Z,8.50
2019-02-17T16:01:54.823Z,8.47
2019-02-17T16:04:28.644Z,7.50
2019-02-17T16:06:55.263Z,6.90
2019-02-17T16:09:24.756Z,7.50
2019-02-17T16:11:54.223Z,7.43
2019-02-17T16:14:23.768Z,7.30
2019-02-17T16:16:53.192Z,6.80
2019-02-17T16:19:22.681Z,6.30
2019-02-17T16:21:52.258Z,6.27
2019-02-17T16:24:21.747Z,6.40
2019-02-17T16:26:51.222Z,6.07
2019-02-17T16:29:20.695Z,6.00
2019-02-17T16:31:49.974Z,5.70
2019-02-17T16:34:19.326Z,5.83
2019-02-17T16:36:48.818Z,5.60
2019-02-17T16:39:18.311Z,5.83
2019-02-17T16:41:47.614Z,5.60
2019-02-17T16:44:17.038Z,5.20
2019-02-17T16:46:46.413Z,4.87
2019-02-17T16:49:15.814Z,5.40
2019-02-17T16:51:45.252Z,11.00
2019-02-17T16:54:14.845Z,15.77
2019-02-17T16:56:44.390Z,29.53
2019-02-17T16:59:14.074Z,22.93
2019-02-17T17:01:43.493Z,20.93
2019-02-17T17:04:13.343Z,19.60
2019-02-17T17:06:42.845Z,33.40
2019-02-17T17:09:12.419Z,32.07
2019-02-17T17:11:41.989Z,25.93
2019-02-17T17:14:11.365Z,28.20
2019-02-17T17:16:40.727Z,22.10
2019-02-17T17:19:10.349Z,18.43
2019-02-17T17:21:39.740Z,17.87
2019-02-17T17:24:09.326Z,17.80
2019-02-17T17:26:38.713Z,21.80
2019-02-17T17:29:08.558Z,19.23
2019-02-17T17:31:38.222Z,24.50
2019-02-17T17:34:07.786Z,18.90
2019-02-17T17:36:37.373Z,16.50
2019-02-17T17:39:07.556Z,16.17
2019-02-17T17:41:37.184Z,20.70
2019-02-17T17:44:06.515Z,15.20
2019-02-17T17:46:36.112Z,14.00
2019-02-17T17:49:05.602Z,17.50
2019-02-17T17:51:35.167Z,30.00
2019-02-17T17:54:04.602Z,22.70
2019-02-17T17:56:34.054Z,20.57
2019-02-17T17:59:03.604Z,26.90
2019-02-17T18:01:33.153Z,41.00
2019-02-17T18:04:02.738Z,17.70
2019-02-17T18:06:32.426Z,14.73
2019-02-17T18:09:01.812Z,20.20
2019-02-17T18:11:31.371Z,23.00
2019-02-17T18:14:00.904Z,11.90
2019-02-17T18:16:34.537Z,12.13
2019-02-17T18:19:03.951Z,10.27
2019-02-17T18:21:33.638Z,8.80
2019-02-17T18:24:03.184Z,9.63
2019-02-17T18:26:32.742Z,19.73
2019-02-17T18:29:02.246Z,13.10
2019-02-17T18:31:31.862Z,14.20
2019-02-17T18:34:01.444Z,22.97
2019-02-17T18:36:30.914Z,18.50
2019-02-17T18:39:00.344Z,15.60
2019-02-17T18:41:30.028Z,14.10
2019-02-17T18:44:00.937Z,14.40
2019-02-17T18:46:30.290Z,13.50
2019-02-17T18:49:00.894Z,14.37
2019-02-17T18:51:30.286Z,13.33
2019-02-17T18:53:59.665Z,13.80
2019-02-17T18:56:29.176Z,14.23
2019-02-17T18:58:58.435Z,13.10
2019-02-17T19:01:27.942Z,14.60
2019-02-17T19:03:57.427Z,14.47
2019-02-17T19:06:26.958Z,13.73
2019-02-17T19:08:56.423Z,13.80
2019-02-17T19:11:25.870Z,13.80
2019-02-17T19:13:55.396Z,14.30
2019-02-17T19:16:24.710Z,13.57
2019-02-17T19:18:54.031Z,12.93
2019-02-17T19:21:23.565Z,15.20
2019-02-17T19:23:53.090Z,13.80
2019-02-17T19:26:22.598Z,14.97
2019-02-17T19:28:52.069Z,14.53
2019-02-17T19:31:21.665Z,16.07
2019-02-17T19:33:51.121Z,14.97
2019-02-17T19:36:20.597Z,13.57
2019-02-17T19:38:50.137Z,14.70
2019-02-17T19:41:19.630Z,12.73
2019-02-17T19:43:49.122Z,13.80
2019-02-17T19:46:18.358Z,13.70
2019-02-17T19:48:47.671Z,13.83
2019-02-17T19:51:17.011Z,13.80
2019-02-17T19:53:46.486Z,14.47
2019-02-17T19:56:16.036Z,13.23
2019-02-17T19:58:45.620Z,13.30
2019-02-17T20:01:15.064Z,13.97
2019-02-17T20:04:15.803Z,13.93
2019-02-17T20:06:45.137Z,13.57
2019-02-17T20:09:19.261Z,14.47
2019-02-17T20:11:48.669Z,13.57
2019-02-17T20:14:17.995Z,13.40
2019-02-17T20:16:47.493Z,14.27
2019-02-17T20:19:17.002Z,13.67
2019-02-17T20:21:46.544Z,12.63
2019-02-17T20:24:18.382Z,12.97
2019-02-17T20:26:48.033Z,13.27
2019-02-17T20:29:17.646Z,13.53
2019-02-17T20:31:47.052Z,14.70
2019-02-17T20:34:16.441Z,13.70
2019-02-17T20:36:45.887Z,13.67
2019-02-17T20:39:15.349Z,12.87
2019-02-17T20:41:44.659Z,13.60
2019-02-17T20:44:14.140Z,13.50
2019-02-17T20:46:43.594Z,13.30
2019-02-17T20:49:13.115Z,14.17
2019-02-17T20:51:42.606Z,13.63
2019-02-17T20:54:12.164Z,13.70
2019-02-17T20:56:41.582Z,14.23
2019-02-17T20:59:10.898Z,14.20
2019-02-17T21:01:40.247Z,13.80
2019-02-17T21:04:09.738Z,13.73
2019-02-17T21:06:39.231Z,13.77
2019-02-17T21:09:08.690Z,13.20
2019-02-17T21:11:38.105Z,13.67
2019-02-17T21:14:07.574Z,14.63
2019-02-17T21:16:37.025Z,14.10
2019-02-17T21:19:06.299Z,13.90
2019-02-17T21:21:35.675Z,14.33
2019-02-17T21:24:05.214Z,14.30
2019-02-17T21:26:35.292Z,13.07
2019-02-17T21:29:04.773Z,14.07
2019-02-17T21:31:34.378Z,13.70
2019-02-17T21:34:03.880Z,13.43
2019-02-17T21:36:33.381Z,13.93
2019-02-17T21:39:04.788Z,14.20
2019-02-17T21:41:34.130Z,14.27
2019-02-17T21:44:03.461Z,13.80
2019-02-17T21:46:40.674Z,13.73
2019-02-17T21:49:10.134Z,14.17
2019-02-17T21:51:39.519Z,13.00
2019-02-17T21:54:09.462Z,12.77
2019-02-17T21:56:39.151Z,12.13
2019-02-17T21:59:09.197Z,12.80
2019-02-17T22:01:38.606Z,12.63
2019-02-17T22:04:09.113Z,12.77
2019-02-17T22:06:38.432Z,12.07
2019-02-17T22:09:07.909Z,12.50
2019-02-17T22:11:37.364Z,11.80
2019-02-17T22:14:06.689Z,11.23
2019-02-17T22:16:36.016Z,11.20
2019-02-17T22:19:05.431Z,11.47
2019-02-17T22:21:34.824Z,11.50
2019-02-17T22:24:04.321Z,11.03
2019-02-17T22:26:33.622Z,11.40
2019-02-17T22:29:04.576Z,11.40
2019-02-17T22:31:34.172Z,10.80
2019-02-17T22:34:03.569Z,11.30
2019-02-17T22:36:43.456Z,11.07
2019-02-17T22:39:06.931Z,10.17
2019-02-17T22:41:36.419Z,10.80
2019-02-17T22:44:05.884Z,10.60
2019-02-17T22:46:35.251Z,9.73
2019-02-17T22:49:04.739Z,10.03
2019-02-17T22:51:34.222Z,10.53
2019-02-17T22:54:03.729Z,9.20
2019-02-17T22:56:33.212Z,9.63
2019-02-17T22:59:02.946Z,9.10
2019-02-17T23:01:33.975Z,9.57
2019-02-17T23:04:03.392Z,9.70
2019-02-17T23:06:32.865Z,8.93
2019-02-17T23:09:02.221Z,9.10
2019-02-17T23:11:31.689Z,9.23
2019-02-17T23:14:01.039Z,9.40
2019-02-17T23:16:30.308Z,9.07
2019-02-17T23:18:59.830Z,8.77
2019-02-17T23:21:29.236Z,8.50
2019-02-17T23:23:58.611Z,9.10
2019-02-17T23:26:28.135Z,7.90
2019-02-17T23:28:57.586Z,8.37
2019-02-17T23:31:26.888Z,8.53
2019-02-17T23:33:56.307Z,9.20
2019-02-17T23:36:25.647Z,8.43
2019-02-17T23:38:55.001Z,7.43
2019-02-17T23:41:24.301Z,8.20
2019-02-17T23:43:53.632Z,7.00
2019-02-17T23:46:23.125Z,8.43
2019-02-17T23:48:52.399Z,8.50
2019-02-17T23:51:21.750Z,7.70
2019-02-17T23:53:52.377Z,7.23
2019-02-17T23:56:21.759Z,7.80
2019-02-17T23:58:51.247Z,7.70
